createdAt,value
2017-10-26T00:00:50.066Z,23.6
2017-10-26T00:01:52.228Z,23.5
2017-10-26T00:02:53.709Z,23.5
2017-10-26T00:03:54.819Z,23.5
2017-10-26T00:04:56.621Z,23.5
2017-10-26T00:05:57.730Z,23.4
2017-10-26T00:06:59.550Z,23.5
2017-10-26T00:08:01.729Z,23.4
2017-10-26T00:09:03.543Z,23.5
2017-10-26T00:10:05.350Z,23.5
2017-10-26T00:11:07.170Z,23.5
2017-10-26T00:12:08.966Z,23.4
2017-10-26T00:13:10.443Z,23.4
2017-10-26T00:14:12.609Z,23.4
2017-10-26T00:15:14.412Z,23.4
2017-10-26T00:16:16.576Z,23.4
2017-10-26T00:17:18.030Z,23.4
2017-10-26T00:18:19.851Z,23.4
2017-10-26T00:19:22.020Z,23.4
2017-10-26T00:20:24.186Z,23.5
2017-10-26T00:21:26.007Z,23.4
2017-10-26T00:22:27.804Z,23.4
2017-10-26T00:23:29.625Z,23.4
2017-10-26T00:24:31.076Z,23.4
2017-10-26T00:25:33.241Z,23.4
2017-10-26T00:26:35.441Z,23.5
2017-10-26T00:27:37.261Z,23.4
2017-10-26T00:28:38.741Z,23.4
2017-10-26T00:29:40.908Z,23.5
2017-10-26T00:30:43.082Z,23.5
2017-10-26T00:31:44.536Z,23.5
2017-10-26T00:32:46.013Z,23.4
2017-10-26T00:33:47.814Z,23.4
2017-10-26T00:34:49.289Z,23.4
2017-10-26T00:35:51.504Z,23.4
2017-10-26T00:36:52.957Z,23.4
2017-10-26T00:37:54.433Z,23.4
2017-10-26T00:38:56.255Z,23.4
2017-10-26T00:39:58.076Z,23.4
2017-10-26T00:41:00.240Z,23.4
2017-10-26T00:42:01.699Z,23.4
2017-10-26T00:43:03.529Z,23.4
2017-10-26T00:44:05.693Z,23.4
2017-10-26T00:45:07.876Z,23.4
2017-10-26T00:46:09.683Z,23.4
2017-10-26T00:47:11.502Z,23.5
2017-10-26T00:48:13.336Z,23.4
2017-10-26T00:49:14.794Z,23.4
2017-10-26T00:50:16.595Z,23.4
2017-10-26T00:51:18.400Z,23.5
2017-10-26T00:52:20.564Z,23.5
2017-10-26T00:53:22.019Z,23.5
2017-10-26T00:54:23.494Z,23.4
2017-10-26T00:55:25.684Z,23.4
2017-10-26T00:56:27.857Z,23.4
2017-10-26T00:57:29.676Z,23.4
2017-10-26T00:58:31.841Z,23.4
2017-10-26T00:59:34.006Z,23.4
2017-10-26T01:00:36.170Z,23.3
2017-10-26T01:01:38.334Z,23.4
2017-10-26T01:02:40.499Z,23.4
2017-10-26T01:03:42.318Z,23.4
2017-10-26T01:04:43.793Z,23.4
2017-10-26T01:05:45.957Z,23.4
2017-10-26T01:06:47.433Z,23.3
2017-10-26T01:07:49.255Z,23.4
2017-10-26T01:08:51.081Z,23.4
2017-10-26T01:09:52.903Z,23.4
2017-10-26T01:10:54.708Z,23.4
2017-10-26T01:11:55.820Z,23.5
2017-10-26T01:12:57.619Z,23.4
2017-10-26T01:13:59.444Z,23.4
2017-10-26T01:15:01.613Z,23.4
2017-10-26T01:16:03.410Z,23.3
2017-10-26T01:17:05.229Z,23.4
2017-10-26T01:18:06.344Z,23.4
2017-10-26T01:19:08.163Z,23.3
2017-10-26T01:20:09.984Z,23.4
2017-10-26T01:21:11.116Z,23.4
2017-10-26T01:22:12.949Z,23.4
2017-10-26T01:23:14.407Z,23.3
2017-10-26T01:24:16.219Z,23.4
2017-10-26T01:25:18.385Z,23.5
2017-10-26T01:26:20.562Z,23.4
2017-10-26T01:27:22.381Z,23.3
2017-10-26T01:28:24.200Z,23.4
2017-10-26T01:29:25.654Z,23.3
2017-10-26T01:30:26.771Z,23.4
2017-10-26T01:31:28.593Z,23.4
2017-10-26T01:32:30.757Z,23.4
2017-10-26T01:33:32.237Z,23.4
2017-10-26T01:34:34.063Z,23.4
2017-10-26T01:35:36.222Z,23.3
2017-10-26T01:36:38.020Z,23.3
2017-10-26T01:37:40.183Z,23.4
2017-10-26T01:38:41.658Z,23.4
2017-10-26T01:39:43.481Z,23.4
2017-10-26T01:40:45.646Z,23.4
2017-10-26T01:41:47.482Z,23.4
2017-10-26T01:42:48.980Z,23.4
2017-10-26T01:43:50.818Z,23.4
2017-10-26T01:44:52.285Z,23.4
2017-10-26T01:45:54.104Z,23.4
2017-10-26T01:46:55.927Z,23.4
2017-10-26T01:47:57.040Z,23.4
2017-10-26T01:48:58.496Z,23.3
2017-10-26T01:50:00.320Z,23.4
2017-10-26T01:51:01.776Z,23.3
2017-10-26T01:52:03.941Z,23.3
2017-10-26T01:53:06.105Z,23.3
2017-10-26T01:54:07.926Z,23.4
2017-10-26T01:55:09.382Z,23.3
2017-10-26T01:56:11.546Z,23.4
2017-10-26T01:57:13.023Z,23.3
2017-10-26T01:58:15.185Z,23.3
2017-10-26T01:59:17.007Z,23.3
2017-10-26T02:00:18.818Z,23.2
2017-10-26T02:01:20.292Z,23.4
2017-10-26T02:02:21.772Z,23.3
2017-10-26T02:03:23.248Z,23.3
2017-10-26T02:04:24.013Z,23.3
2017-10-26T02:05:25.494Z,23.3
2017-10-26T02:06:27.676Z,23.3
2017-10-26T02:07:29.478Z,23.3
2017-10-26T02:08:31.645Z,23.3
2017-10-26T02:09:33.446Z,23.3
2017-10-26T02:10:35.268Z,23.3
2017-10-26T02:11:36.743Z,23.3
2017-10-26T02:12:38.909Z,23.3
2017-10-26T02:13:40.733Z,23.3
2017-10-26T02:14:42.893Z,23.3
2017-10-26T02:15:44.708Z,23.3
2017-10-26T02:16:46.152Z,23.2
2017-10-26T02:17:48.315Z,23.3
2017-10-26T02:18:50.113Z,23.3
2017-10-26T02:19:51.947Z,23.2
2017-10-26T02:20:54.112Z,23.2
2017-10-26T02:21:56.277Z,23.2
2017-10-26T02:22:57.754Z,23.3
2017-10-26T02:23:59.549Z,23.3
2017-10-26T02:25:01.371Z,23.3
2017-10-26T02:26:03.550Z,23.3
2017-10-26T02:27:05.025Z,23.3
2017-10-26T02:28:06.838Z,23.2
2017-10-26T02:29:08.655Z,23.3
2017-10-26T02:30:10.474Z,23.3
2017-10-26T02:31:11.968Z,23.3
2017-10-26T02:32:14.134Z,23.2
2017-10-26T02:33:15.955Z,23.3
2017-10-26T02:34:17.779Z,23.3
2017-10-26T02:35:19.620Z,23.2
2017-10-26T02:36:21.073Z,23.3
2017-10-26T02:37:22.528Z,23.3
2017-10-26T02:38:24.349Z,23.3
2017-10-26T02:39:26.514Z,23.2
2017-10-26T02:40:27.969Z,23.3
2017-10-26T02:41:29.774Z,23.3
2017-10-26T02:42:30.901Z,23.3
2017-10-26T02:43:32.356Z,23.3
2017-10-26T02:44:34.180Z,23.3
2017-10-26T02:45:36.001Z,23.3
2017-10-26T02:46:38.166Z,23.3
2017-10-26T02:47:39.647Z,23.3
2017-10-26T02:48:41.818Z,23.3
2017-10-26T02:49:43.281Z,23.3
2017-10-26T02:50:44.757Z,23.3
2017-10-26T02:51:46.559Z,23.2
2017-10-26T02:52:48.722Z,23.2
2017-10-26T02:53:50.180Z,23.2
2017-10-26T02:54:52.343Z,23.3
2017-10-26T02:55:54.502Z,23.3
2017-10-26T02:56:56.383Z,23.3
2017-10-26T02:57:58.204Z,23.3
2017-10-26T02:59:00.025Z,23.3
2017-10-26T03:00:01.848Z,23.3
2017-10-26T03:01:03.303Z,23.3
2017-10-26T03:02:04.759Z,23.3
2017-10-26T03:03:06.220Z,23.3
2017-10-26T03:04:08.036Z,23.3
2017-10-26T03:05:10.200Z,23.2
2017-10-26T03:06:12.364Z,23.3
2017-10-26T03:07:14.161Z,23.3
2017-10-26T03:08:15.984Z,23.3
2017-10-26T03:09:18.149Z,23.3
2017-10-26T03:10:20.340Z,23.3
2017-10-26T03:11:22.506Z,23.3
2017-10-26T03:12:24.353Z,23.3
2017-10-26T03:13:26.175Z,23.3
2017-10-26T03:14:27.996Z,23.2
2017-10-26T03:15:29.471Z,23.3
2017-10-26T03:16:31.637Z,23.3
2017-10-26T03:17:33.457Z,23.3
2017-10-26T03:18:35.290Z,23.2
2017-10-26T03:19:36.765Z,23.3
2017-10-26T03:20:38.564Z,23.3
2017-10-26T03:21:40.760Z,23.3
2017-10-26T03:22:42.578Z,23.2
2017-10-26T03:23:44.374Z,23.2
2017-10-26T03:24:46.537Z,23.3
2017-10-26T03:25:48.016Z,23.3
2017-10-26T03:26:49.476Z,23.2
2017-10-26T03:27:51.635Z,23.3
2017-10-26T03:28:53.112Z,23.3
2017-10-26T03:29:54.944Z,23.3
2017-10-26T03:30:56.750Z,23.3
2017-10-26T03:31:58.910Z,23.2
2017-10-26T03:33:00.387Z,23.3
2017-10-26T03:34:02.552Z,23.3
2017-10-26T03:35:04.033Z,23.3
2017-10-26T03:36:05.857Z,23.3
2017-10-26T03:37:07.655Z,23.2
2017-10-26T03:38:09.133Z,23.3
2017-10-26T03:39:11.296Z,23.2
2017-10-26T03:40:13.112Z,23.2
2017-10-26T03:41:14.933Z,23.2
2017-10-26T03:42:17.102Z,23.2
2017-10-26T03:43:19.295Z,23.2
2017-10-26T03:44:20.748Z,23.2
2017-10-26T03:45:22.571Z,23.2
2017-10-26T03:46:24.052Z,23.1
2017-10-26T03:47:25.508Z,23.2
2017-10-26T03:48:27.672Z,23.2
2017-10-26T03:49:28.803Z,23.1
2017-10-26T03:50:30.265Z,23.2
2017-10-26T03:51:32.084Z,23.2
2017-10-26T03:52:34.246Z,23.2
2017-10-26T03:53:36.066Z,23.2
2017-10-26T03:54:38.228Z,23.2
2017-10-26T03:55:39.704Z,23.2
2017-10-26T03:56:41.529Z,23.2
2017-10-26T03:57:43.003Z,23.2
2017-10-26T03:58:44.822Z,23.2
2017-10-26T03:59:46.279Z,23.2
2017-10-26T04:00:48.105Z,23.2
2017-10-26T04:01:48.882Z,23.3
2017-10-26T04:02:50.356Z,23.2
2017-10-26T04:03:52.520Z,23.2
2017-10-26T04:04:53.996Z,23.2
2017-10-26T04:05:55.819Z,23.2
2017-10-26T04:06:57.986Z,23.2
2017-10-26T04:07:59.803Z,23.2
2017-10-26T04:09:01.603Z,23.2
2017-10-26T04:10:03.066Z,23.3
2017-10-26T04:11:04.865Z,23.2
2017-10-26T04:12:06.686Z,23.2
2017-10-26T04:13:08.851Z,23.2
2017-10-26T04:14:10.305Z,23.2
2017-10-26T04:15:12.470Z,23.2
2017-10-26T04:16:14.270Z,23.1
2017-10-26T04:17:15.756Z,23.2
2017-10-26T04:18:17.570Z,23.3
2017-10-26T04:19:19.736Z,23.2
2017-10-26T04:20:21.561Z,23.2
2017-10-26T04:21:23.379Z,23.3
2017-10-26T04:22:25.201Z,23.2
2017-10-26T04:23:26.308Z,23.2
2017-10-26T04:24:27.765Z,23.3
2017-10-26T04:25:29.592Z,23.2
2017-10-26T04:26:30.352Z,23.2
2017-10-26T04:27:32.518Z,23.2
2017-10-26T04:28:34.683Z,23.2
2017-10-26T04:29:36.139Z,23.3
2017-10-26T04:30:37.960Z,23.3
2017-10-26T04:31:39.778Z,23.3
2017-10-26T04:32:41.234Z,23.2
2017-10-26T04:33:43.054Z,23.3
2017-10-26T04:34:45.219Z,23.3
2017-10-26T04:35:47.382Z,23.3
2017-10-26T04:36:49.546Z,23.3
2017-10-26T04:37:51.343Z,23.3
2017-10-26T04:38:52.818Z,23.3
2017-10-26T04:39:54.639Z,23.3
2017-10-26T04:40:56.093Z,23.3
2017-10-26T04:41:58.257Z,23.3
2017-10-26T04:43:00.426Z,23.3
2017-10-26T04:44:02.221Z,23.3
2017-10-26T04:45:04.423Z,23.4
2017-10-26T04:46:06.241Z,23.3
2017-10-26T04:47:08.403Z,23.4
2017-10-26T04:48:09.881Z,23.3
2017-10-26T04:49:12.052Z,23.4
2017-10-26T04:50:13.872Z,23.3
2017-10-26T04:51:15.350Z,23.4
2017-10-26T04:52:16.461Z,23.4
2017-10-26T04:53:17.915Z,23.3
2017-10-26T04:54:19.716Z,23.4
2017-10-26T04:55:21.171Z,23.4
2017-10-26T04:56:22.628Z,23.4
2017-10-26T04:57:24.107Z,23.3
2017-10-26T04:58:25.557Z,23.4
2017-10-26T04:59:27.375Z,23.3
2017-10-26T05:00:29.539Z,23.4
2017-10-26T05:01:31.016Z,23.4
2017-10-26T05:02:32.815Z,23.4
2017-10-26T05:03:34.979Z,23.4
2017-10-26T05:04:37.145Z,23.4
2017-10-26T05:05:38.619Z,23.4
2017-10-26T05:06:40.441Z,23.4
2017-10-26T05:07:42.608Z,23.3
2017-10-26T05:08:44.429Z,23.4
2017-10-26T05:09:46.590Z,23.4
2017-10-26T05:10:48.595Z,23.3
2017-10-26T05:11:50.765Z,23.4
2017-10-26T05:12:52.585Z,23.3
2017-10-26T05:13:54.431Z,23.4
2017-10-26T05:14:56.248Z,23.4
2017-10-26T05:15:58.070Z,23.4
2017-10-26T05:17:00.252Z,23.3
2017-10-26T05:18:02.414Z,23.4
2017-10-26T05:19:04.298Z,23.5
2017-10-26T05:20:06.098Z,23.5
2017-10-26T05:21:07.577Z,23.4
2017-10-26T05:22:09.397Z,23.4
2017-10-26T05:23:11.215Z,23.4
2017-10-26T05:24:13.377Z,23.5
2017-10-26T05:25:15.542Z,23.5
2017-10-26T05:26:17.365Z,23.5
2017-10-26T05:27:19.191Z,23.5
2017-10-26T05:28:20.644Z,23.4
2017-10-26T05:29:22.811Z,23.3
2017-10-26T05:30:24.609Z,23.4
2017-10-26T05:31:26.431Z,23.4
2017-10-26T05:32:28.253Z,23.4
2017-10-26T05:33:30.084Z,23.5
2017-10-26T05:34:31.550Z,23.5
2017-10-26T05:35:33.720Z,23.4
2017-10-26T05:36:35.528Z,23.4
2017-10-26T05:37:36.994Z,23.4
2017-10-26T05:38:38.814Z,23.4
2017-10-26T05:39:40.634Z,23.4
2017-10-26T05:40:42.089Z,23.5
2017-10-26T05:41:44.252Z,23.5
2017-10-26T05:42:46.055Z,23.4
2017-10-26T05:43:47.534Z,23.5
2017-10-26T05:44:49.013Z,23.4
2017-10-26T05:45:50.489Z,23.5
2017-10-26T05:46:51.951Z,23.5
2017-10-26T05:47:53.435Z,23.5
2017-10-26T05:48:55.252Z,23.5
2017-10-26T05:49:57.050Z,23.4
2017-10-26T05:50:58.163Z,23.4
2017-10-26T05:51:59.614Z,23.4
2017-10-26T05:53:01.778Z,23.4
2017-10-26T05:54:03.334Z,23.4
2017-10-26T05:55:05.517Z,23.4
2017-10-26T05:56:07.684Z,23.4
2017-10-26T05:57:09.163Z,23.5
2017-10-26T05:58:10.657Z,23.4
2017-10-26T05:59:12.480Z,23.4
2017-10-26T06:00:14.305Z,23.5
2017-10-26T06:01:15.771Z,23.4
2017-10-26T06:02:17.220Z,23.4
2017-10-26T06:03:18.360Z,23.4
2017-10-26T06:04:19.836Z,23.5
2017-10-26T06:05:21.658Z,23.4
2017-10-26T06:06:23.480Z,23.4
2017-10-26T06:07:25.643Z,23.5
2017-10-26T06:08:27.098Z,23.5
2017-10-26T06:09:28.917Z,23.5
2017-10-26T06:10:30.082Z,23.4
2017-10-26T06:11:31.906Z,23.4
2017-10-26T06:12:33.778Z,23.5
2017-10-26T06:13:35.622Z,23.4
2017-10-26T06:14:37.093Z,23.4
2017-10-26T06:15:38.919Z,23.5
2017-10-26T06:16:40.722Z,23.4
2017-10-26T06:17:42.204Z,23.5
2017-10-26T06:18:44.023Z,23.4
2017-10-26T06:19:46.189Z,23.5
2017-10-26T06:20:48.019Z,23.5
2017-10-26T06:21:48.781Z,23.4
2017-10-26T06:22:51.191Z,23.5
2017-10-26T06:23:52.645Z,23.5
2017-10-26T06:24:54.818Z,23.4
2017-10-26T06:25:56.636Z,23.4
2017-10-26T06:26:58.833Z,23.4
2017-10-26T06:28:00.775Z,23.4
2017-10-26T06:29:02.942Z,23.5
2017-10-26T06:30:04.745Z,23.4
2017-10-26T06:31:06.202Z,23.4
2017-10-26T06:32:08.372Z,23.5
2017-10-26T06:33:10.538Z,23.5
2017-10-26T06:34:12.760Z,23.4
2017-10-26T06:35:14.244Z,23.5
2017-10-26T06:36:15.705Z,23.4
2017-10-26T06:37:17.190Z,23.5
2017-10-26T06:38:19.012Z,23.4
2017-10-26T06:39:20.475Z,23.4
2017-10-26T06:40:21.930Z,23.5
2017-10-26T06:41:24.098Z,23.5
2017-10-26T06:42:25.923Z,23.4
2017-10-26T06:43:27.401Z,23.4
2017-10-26T06:44:28.859Z,23.5
2017-10-26T06:45:31.023Z,23.4
2017-10-26T06:46:32.843Z,23.4
2017-10-26T06:47:35.007Z,23.4
2017-10-26T06:48:36.490Z,23.4
2017-10-26T06:49:37.972Z,23.5
2017-10-26T06:50:39.824Z,23.5
2017-10-26T06:51:41.645Z,23.4
2017-10-26T06:52:43.514Z,23.5
2017-10-26T06:53:45.335Z,23.5
2017-10-26T06:54:47.131Z,23.5
2017-10-26T06:55:48.953Z,23.4
2017-10-26T06:56:51.120Z,23.4
2017-10-26T06:57:53.285Z,23.5
2017-10-26T06:58:55.503Z,23.5
2017-10-26T06:59:57.372Z,23.5
2017-10-26T07:00:59.214Z,23.4
2017-10-26T07:02:00.692Z,23.4
2017-10-26T07:03:01.831Z,23.5
2017-10-26T07:04:03.629Z,23.5
2017-10-26T07:05:05.431Z,23.5
2017-10-26T07:06:07.595Z,23.6
2017-10-26T07:07:08.709Z,23.5
2017-10-26T07:08:10.531Z,23.5
2017-10-26T07:09:12.360Z,23.5
2017-10-26T07:10:14.527Z,23.4
2017-10-26T07:11:16.692Z,23.4
2017-10-26T07:12:18.492Z,23.5
2017-10-26T07:13:19.604Z,23.4
2017-10-26T07:14:21.431Z,23.4
2017-10-26T07:15:23.249Z,23.4
2017-10-26T07:16:25.074Z,23.4
2017-10-26T07:17:26.873Z,23.4
2017-10-26T07:18:29.066Z,23.5
2017-10-26T07:19:30.544Z,23.4
2017-10-26T07:20:32.716Z,23.5
2017-10-26T07:21:34.518Z,23.4
2017-10-26T07:22:36.682Z,23.5
2017-10-26T07:23:38.481Z,23.5
2017-10-26T07:24:40.647Z,23.5
2017-10-26T07:25:42.810Z,23.4
2017-10-26T07:26:44.288Z,23.5
2017-10-26T07:27:46.454Z,23.5
2017-10-26T07:28:47.909Z,23.4
2017-10-26T07:29:49.734Z,23.5
2017-10-26T07:30:51.563Z,23.5
2017-10-26T07:31:52.673Z,23.5
2017-10-26T07:32:54.500Z,23.5
2017-10-26T07:33:56.683Z,23.5
2017-10-26T07:34:58.851Z,23.4
2017-10-26T07:36:00.671Z,23.5
2017-10-26T07:37:01.802Z,23.5
2017-10-26T07:38:03.262Z,23.5
2017-10-26T07:39:04.715Z,23.5
2017-10-26T07:40:06.520Z,23.5
2017-10-26T07:41:07.969Z,23.5
2017-10-26T07:42:10.141Z,23.5
2017-10-26T07:43:11.623Z,23.5
2017-10-26T07:44:13.084Z,23.5
2017-10-26T07:45:14.906Z,23.5
2017-10-26T07:46:16.364Z,23.5
2017-10-26T07:47:17.479Z,23.5
2017-10-26T07:48:18.593Z,23.5
2017-10-26T07:49:19.706Z,23.5
2017-10-26T07:50:21.528Z,23.5
2017-10-26T07:51:23.335Z,23.5
2017-10-26T07:52:25.130Z,23.5
2017-10-26T07:53:26.628Z,23.6
2017-10-26T07:54:28.447Z,23.5
2017-10-26T07:55:30.334Z,23.5
2017-10-26T07:56:32.137Z,23.6
2017-10-26T07:57:33.961Z,23.6
2017-10-26T07:58:35.767Z,23.5
2017-10-26T07:59:37.583Z,23.5
2017-10-26T08:00:39.443Z,23.5
2017-10-26T08:01:40.940Z,23.5
2017-10-26T08:02:42.831Z,23.5
2017-10-26T08:03:44.287Z,23.6
2017-10-26T08:04:46.222Z,23.6
2017-10-26T08:05:47.680Z,23.6
2017-10-26T08:06:49.486Z,23.7
2017-10-26T08:07:51.311Z,23.7
2017-10-26T08:08:52.769Z,23.7
2017-10-26T08:09:54.593Z,23.6
2017-10-26T08:10:56.758Z,23.6
2017-10-26T08:11:58.596Z,23.7
2017-10-26T08:13:00.050Z,23.6
2017-10-26T08:14:01.878Z,23.6
2017-10-26T08:15:03.703Z,23.6
2017-10-26T08:16:05.162Z,23.6
2017-10-26T08:17:07.352Z,23.6
2017-10-26T08:18:09.190Z,23.6
2017-10-26T08:19:11.004Z,23.6
2017-10-26T08:20:12.940Z,23.6
2017-10-26T08:21:15.585Z,23.6
2017-10-26T08:22:17.390Z,23.6
2017-10-26T08:23:19.211Z,23.6
2017-10-26T08:24:21.038Z,23.6
2017-10-26T08:25:22.900Z,23.6
2017-10-26T08:26:24.026Z,23.6
2017-10-26T08:27:26.191Z,23.6
2017-10-26T08:28:27.673Z,23.7
2017-10-26T08:29:29.127Z,23.7
2017-10-26T08:30:30.585Z,23.7
2017-10-26T08:31:32.753Z,23.7
2017-10-26T08:32:34.913Z,23.7
2017-10-26T08:33:36.732Z,23.7
2017-10-26T08:34:38.555Z,23.7
2017-10-26T08:35:40.756Z,23.7
2017-10-26T08:36:42.956Z,23.8
2017-10-26T08:37:45.128Z,23.8
2017-10-26T08:38:46.606Z,23.7
2017-10-26T08:39:48.770Z,23.8
2017-10-26T08:40:50.585Z,23.7
2017-10-26T08:41:52.401Z,23.7
2017-10-26T08:42:53.522Z,23.8
2017-10-26T08:43:54.995Z,23.8
2017-10-26T08:44:56.827Z,23.8
2017-10-26T08:45:58.021Z,23.7
2017-10-26T08:47:00.189Z,23.7
2017-10-26T08:48:02.354Z,23.8
2017-10-26T08:49:04.522Z,23.8
2017-10-26T08:50:06.346Z,23.8
2017-10-26T08:51:07.861Z,23.8
2017-10-26T08:52:09.681Z,23.8
2017-10-26T08:53:11.487Z,23.8
2017-10-26T08:54:13.288Z,23.8
2017-10-26T08:55:15.107Z,23.8
2017-10-26T08:56:16.931Z,23.8
2017-10-26T08:57:18.755Z,23.8
2017-10-26T08:58:20.587Z,23.8
2017-10-26T08:59:22.765Z,23.9
2017-10-26T09:00:24.576Z,23.9
2017-10-26T09:01:26.400Z,23.9
2017-10-26T09:02:28.200Z,23.9
2017-10-26T09:03:30.021Z,23.9
2017-10-26T09:04:32.186Z,23.9
2017-10-26T09:05:34.011Z,24
2017-10-26T09:06:35.468Z,23.9
2017-10-26T09:07:37.634Z,23.9
2017-10-26T09:08:39.453Z,24
2017-10-26T09:09:41.278Z,23.9
2017-10-26T09:10:43.098Z,23.9
2017-10-26T09:11:44.914Z,24
2017-10-26T09:12:46.395Z,24
2017-10-26T09:13:48.217Z,23.9
2017-10-26T09:14:50.040Z,24.1
2017-10-26T09:15:51.860Z,24
2017-10-26T09:16:53.343Z,24
2017-10-26T09:17:55.506Z,24
2017-10-26T09:18:57.341Z,24
2017-10-26T09:19:59.158Z,24
2017-10-26T09:21:00.979Z,24
2017-10-26T09:22:03.146Z,24.1
2017-10-26T09:23:04.991Z,24
2017-10-26T09:24:06.454Z,24.1
2017-10-26T09:25:08.276Z,24.1
2017-10-26T09:26:10.103Z,24.1
2017-10-26T09:27:12.279Z,24
2017-10-26T09:28:13.757Z,24.1
2017-10-26T09:29:15.214Z,24.1
2017-10-26T09:30:17.037Z,24
2017-10-26T09:31:18.514Z,24
2017-10-26T09:32:19.631Z,24.1
2017-10-26T09:33:21.794Z,24.1
2017-10-26T09:34:23.958Z,24.1
2017-10-26T09:35:25.785Z,24.1
2017-10-26T09:36:27.588Z,24
2017-10-26T09:37:29.415Z,24.2
2017-10-26T09:38:31.582Z,24.1
2017-10-26T09:39:33.403Z,24
2017-10-26T09:40:35.205Z,24.1
2017-10-26T09:41:37.370Z,24
2017-10-26T09:42:38.848Z,24.1
2017-10-26T09:43:40.649Z,24.1
2017-10-26T09:44:42.124Z,24.1
2017-10-26T09:45:43.580Z,24.2
2017-10-26T09:46:45.431Z,24
2017-10-26T09:47:46.895Z,24.1
2017-10-26T09:48:48.805Z,24.1
2017-10-26T09:49:50.983Z,24.1
2017-10-26T09:50:52.119Z,24.1
2017-10-26T09:51:53.941Z,24.1
2017-10-26T09:52:55.763Z,24.1
2017-10-26T09:53:56.906Z,24.1
2017-10-26T09:54:58.728Z,24.1
2017-10-26T09:56:00.895Z,24.1
2017-10-26T09:57:02.728Z,24.1
2017-10-26T09:58:04.902Z,24.1
2017-10-26T09:59:06.723Z,24.1
2017-10-26T10:00:08.208Z,24.1
2017-10-26T10:01:10.029Z,24.1
2017-10-26T10:02:11.486Z,24.1
2017-10-26T10:03:13.649Z,24.1
2017-10-26T10:04:15.452Z,24.1
2017-10-26T10:05:17.270Z,24.1
2017-10-26T10:06:19.069Z,24.1
2017-10-26T10:07:20.893Z,24.2
2017-10-26T10:08:22.352Z,24.1
2017-10-26T10:09:24.519Z,24.1
2017-10-26T10:10:26.320Z,24.1
2017-10-26T10:11:28.142Z,24.1
2017-10-26T10:12:29.284Z,24
2017-10-26T10:13:31.118Z,24.2
2017-10-26T10:14:32.937Z,24.1
2017-10-26T10:15:34.763Z,24.2
2017-10-26T10:16:36.564Z,24.2
2017-10-26T10:17:38.729Z,24.1
2017-10-26T10:18:40.554Z,24.1
2017-10-26T10:19:42.378Z,24.1
2017-10-26T10:20:44.189Z,24.1
2017-10-26T10:21:45.668Z,24.1
2017-10-26T10:22:47.840Z,24.1
2017-10-26T10:23:49.319Z,24.2
2017-10-26T10:24:50.453Z,24.1
2017-10-26T10:25:52.275Z,24.1
2017-10-26T10:26:54.461Z,24.3
2017-10-26T10:27:55.956Z,24.1
2017-10-26T10:28:58.129Z,24.1
2017-10-26T10:29:59.957Z,24.2
2017-10-26T10:31:01.441Z,24.1
2017-10-26T10:32:03.609Z,24.1
2017-10-26T10:33:05.066Z,24.1
2017-10-26T10:34:07.235Z,24.2
2017-10-26T10:35:09.057Z,24.2
2017-10-26T10:36:10.882Z,24.2
2017-10-26T10:37:12.067Z,24.1
2017-10-26T10:38:14.268Z,24.1
2017-10-26T10:39:15.722Z,24.1
2017-10-26T10:40:17.199Z,24.2
2017-10-26T10:41:19.024Z,24.1
2017-10-26T10:42:20.841Z,24.2
2017-10-26T10:43:23.006Z,24.2
2017-10-26T10:44:25.173Z,24.1
2017-10-26T10:45:26.285Z,24.2
2017-10-26T10:46:28.111Z,24.2
2017-10-26T10:47:29.566Z,24.2
2017-10-26T10:48:31.387Z,24.2
2017-10-26T10:49:33.552Z,24.2
2017-10-26T10:50:35.718Z,24.2
2017-10-26T10:51:37.173Z,24.3
2017-10-26T10:52:39.341Z,24.2
2017-10-26T10:53:40.797Z,24.3
2017-10-26T10:54:42.252Z,24.2
2017-10-26T10:55:44.419Z,24.2
2017-10-26T10:56:46.239Z,24.3
2017-10-26T10:57:47.706Z,24.3
2017-10-26T10:58:49.870Z,24.2
2017-10-26T10:59:52.035Z,24.2
2017-10-26T11:00:53.859Z,24.2
2017-10-26T11:01:55.682Z,24.2
2017-10-26T11:02:57.485Z,24.3
2017-10-26T11:03:59.676Z,24.2
2017-10-26T11:05:01.475Z,24.3
2017-10-26T11:06:03.642Z,24.3
2017-10-26T11:07:05.119Z,24.3
2017-10-26T11:08:06.234Z,24.3
2017-10-26T11:09:07.356Z,24.2
2017-10-26T11:10:09.191Z,24.3
2017-10-26T11:11:11.012Z,24.3
2017-10-26T11:12:12.494Z,24.3
2017-10-26T11:13:14.318Z,24.3
2017-10-26T11:14:16.485Z,24.2
2017-10-26T11:15:18.652Z,24.3
2017-10-26T11:16:20.475Z,24.3
2017-10-26T11:17:21.932Z,24.3
2017-10-26T11:18:23.806Z,24.3
2017-10-26T11:19:25.628Z,24.3
2017-10-26T11:20:27.458Z,24.2
2017-10-26T11:21:29.263Z,24.3
2017-10-26T11:22:31.430Z,24.3
2017-10-26T11:23:32.893Z,24.3
2017-10-26T11:24:34.740Z,24.3
2017-10-26T11:25:36.199Z,24.3
2017-10-26T11:26:37.713Z,24.3
2017-10-26T11:27:40.386Z,24.4
2017-10-26T11:28:42.667Z,24.3
2017-10-26T11:29:44.834Z,24.3
2017-10-26T11:30:46.656Z,24.4
2017-10-26T11:31:48.831Z,24.3
2017-10-26T11:32:50.663Z,24.4
2017-10-26T11:33:52.496Z,24.3
2017-10-26T11:34:54.662Z,24.3
2017-10-26T11:35:56.830Z,24.3
2017-10-26T11:36:58.995Z,24.4
2017-10-26T11:38:00.820Z,24.5
2017-10-26T11:39:01.950Z,24.4
2017-10-26T11:40:04.122Z,24.5
2017-10-26T11:41:06.299Z,24.5
2017-10-26T11:42:08.123Z,24.4
2017-10-26T11:43:09.942Z,24.4
2017-10-26T11:44:11.400Z,24.4
2017-10-26T11:45:12.168Z,24.5
2017-10-26T11:46:14.363Z,24.5
2017-10-26T11:47:15.476Z,24.4
2017-10-26T11:48:16.956Z,24.5
2017-10-26T11:49:19.127Z,24.4
2017-10-26T11:50:20.921Z,24.4
2017-10-26T11:51:22.384Z,24.5
2017-10-26T11:52:23.845Z,24.5
2017-10-26T11:53:25.673Z,24.4
2017-10-26T11:54:27.498Z,24.5
2017-10-26T11:55:28.265Z,24.4
2017-10-26T11:56:30.070Z,24.5
2017-10-26T11:57:31.550Z,24.5
2017-10-26T11:58:33.718Z,24.4
2017-10-26T11:59:35.181Z,24.4
2017-10-26T12:00:35.953Z,24.5
2017-10-26T12:01:37.755Z,24.5
2017-10-26T12:02:38.898Z,24.5
2017-10-26T12:03:40.719Z,24.5
2017-10-26T12:04:42.902Z,24.4
2017-10-26T12:05:44.723Z,24.4
2017-10-26T12:06:46.549Z,24.5
2017-10-26T12:07:47.681Z,24.4
2017-10-26T12:08:49.845Z,24.4
2017-10-26T12:09:51.302Z,24.4
2017-10-26T12:10:52.765Z,24.4
2017-10-26T12:11:54.927Z,24.4
2017-10-26T12:12:56.746Z,24.5
2017-10-26T12:13:58.915Z,24.4
2017-10-26T12:15:01.085Z,24.5
2017-10-26T12:16:03.248Z,24.4
2017-10-26T12:17:04.729Z,24.4
2017-10-26T12:18:06.214Z,24.4
2017-10-26T12:19:08.379Z,24.5
2017-10-26T12:20:09.855Z,24.4
2017-10-26T12:21:11.678Z,24.5
2017-10-26T12:22:13.503Z,24.4
2017-10-26T12:23:15.328Z,24.4
2017-10-26T12:24:17.135Z,24.5
2017-10-26T12:25:17.908Z,24.4
2017-10-26T12:26:19.729Z,24.4
2017-10-26T12:27:21.532Z,24.4
2017-10-26T12:28:23.728Z,24.4
2017-10-26T12:29:25.943Z,24.4
2017-10-26T12:30:27.521Z,24.4
2017-10-26T12:31:29.344Z,24.4
2017-10-26T12:32:31.167Z,24.5
2017-10-26T12:33:33.339Z,24.4
2017-10-26T12:34:34.848Z,24.5
2017-10-26T12:35:36.843Z,24.4
2017-10-26T12:36:38.315Z,24.4
2017-10-26T12:37:39.431Z,24.4
2017-10-26T12:38:41.601Z,24.4
2017-10-26T12:39:43.438Z,24.5
2017-10-26T12:40:44.559Z,24.4
2017-10-26T12:41:46.728Z,24.4
2017-10-26T12:42:48.557Z,24.4
2017-10-26T12:43:50.386Z,24.4
2017-10-26T12:44:51.851Z,24.4
2017-10-26T12:45:53.317Z,24.4
2017-10-26T12:46:55.127Z,24.4
2017-10-26T12:47:56.580Z,24.4
2017-10-26T12:48:58.042Z,24.4
2017-10-26T12:50:00.215Z,24.4
2017-10-26T12:51:01.691Z,24.4
2017-10-26T12:52:03.515Z,24.4
2017-10-26T12:53:04.633Z,24.4
2017-10-26T12:54:06.115Z,24.4
2017-10-26T12:55:07.231Z,24.4
2017-10-26T12:56:09.054Z,24.4
2017-10-26T12:57:10.883Z,24.4
2017-10-26T12:58:12.422Z,24.3
2017-10-26T12:59:13.909Z,24.4
2017-10-26T13:00:15.846Z,24.4
2017-10-26T13:01:17.285Z,24.4
2017-10-26T13:02:19.454Z,24.4
2017-10-26T13:03:20.937Z,24.4
2017-10-26T13:04:22.762Z,24.4
2017-10-26T13:05:24.589Z,24.4
2017-10-26T13:06:26.059Z,24.3
2017-10-26T13:07:27.864Z,24.4
2017-10-26T13:08:29.323Z,24.4
2017-10-26T13:09:31.146Z,24.4
2017-10-26T13:10:32.633Z,24.4
2017-10-26T13:11:34.456Z,24.4
2017-10-26T13:12:36.660Z,24.5
2017-10-26T13:13:37.750Z,24.4
2017-10-26T13:14:39.925Z,24.4
2017-10-26T13:15:41.399Z,24.4
2017-10-26T13:16:42.518Z,24.4
2017-10-26T13:17:44.342Z,24.4
2017-10-26T13:18:46.168Z,24.3
2017-10-26T13:19:47.968Z,24.3
2017-10-26T13:20:49.766Z,24.3
2017-10-26T13:21:51.253Z,24.4
2017-10-26T13:22:53.071Z,24.4
2017-10-26T13:23:54.190Z,24.4
2017-10-26T13:24:56.358Z,24.4
2017-10-26T13:25:58.528Z,24.4
2017-10-26T13:27:00.356Z,24.4
2017-10-26T13:28:02.181Z,24.4
2017-10-26T13:29:04.347Z,24.4
2017-10-26T13:30:06.515Z,24.4
2017-10-26T13:31:08.322Z,24.4
2017-10-26T13:32:10.143Z,24.4
2017-10-26T13:33:12.314Z,24.4
2017-10-26T13:34:14.481Z,24.4
2017-10-26T13:35:16.287Z,24.4
2017-10-26T13:36:18.118Z,24.4
2017-10-26T13:37:20.284Z,24.4
2017-10-26T13:38:22.452Z,24.4
2017-10-26T13:39:23.934Z,24.4
2017-10-26T13:40:26.105Z,24.4
2017-10-26T13:41:27.910Z,24.5
2017-10-26T13:42:29.044Z,24.4
2017-10-26T13:43:30.865Z,24.4